Time;durP1;ratioP1;P1;durP2;ratioP2;P2;SDS_P1;SDS_P2;PMS_P1;PMS_P2;Temp;Humidity;BMP_temperature;BMP_pressure;BME280_temperature;BME280_humidity;BME280_pressure;Samples;Min_cycle;Max_cycle;Signal;HPM_P1;HPM_P2
2024/03/22 00:01:24;;;;;;;;;;;10.60;99.90;;;;;;6712624;88;20071;-76
2024/03/22 00:11:24;;;;;;;;;;;10.60;99.90;;;;;;6711576;88;20559;-75
2024/03/22 00:21:25;;;;;;;;;;;10.40;99.90;;;;;;6718944;88;20087;-76
2024/03/22 00:31:26;;;;;;;;;;;10.30;99.90;;;;;;6721132;88;20062;-76
2024/03/22 00:41:26;;;;;;;;;;;10.20;99.90;;;;;;6724973;88;20584;-75
2024/03/22 01:01:30;;;;;;;;;;;10.20;99.90;;;;;;6719046;88;20672;-78
2024/03/22 01:11:30;;;;;;;;;;;10.10;99.90;;;;;;6702104;88;20219;-79
2024/03/22 01:21:32;;;;;;;;;;;10.00;99.90;;;;;;6702945;88;20054;-78
2024/03/22 01:31:32;;;;;;;;;;;10.10;99.90;;;;;;6703041;88;20089;-79
2024/03/22 01:41:32;;;;;;;;;;;10.20;99.90;;;;;;6702932;88;20066;-78
2024/03/22 01:51:33;;;;;;;;;;;10.10;99.90;;;;;;6702277;88;20079;-78
2024/03/22 02:01:34;;;;;;;;;;;10.00;99.90;;;;;;6706334;88;20132;-80
2024/03/22 02:11:35;;;;;;;;;;;9.90;99.90;;;;;;6712812;88;20133;-79
2024/03/22 02:21:36;;;;;;;;;;;9.80;99.90;;;;;;6717818;88;20080;-81
2024/03/22 02:31:36;;;;;;;;;;;9.80;99.90;;;;;;6706996;88;20066;-78
2024/03/22 02:41:37;;;;;;;;;;;9.90;99.90;;;;;;6705352;88;20088;-77
2024/03/22 02:51:37;;;;;;;;;;;9.90;99.90;;;;;;6713048;88;20522;-78
2024/03/22 03:01:38;;;;;;;;;;;10.00;99.90;;;;;;6705479;88;20062;-78
2024/03/22 03:11:41;;;;;;;;;;;9.90;99.90;;;;;;6705385;88;20130;-77
2024/03/22 03:21:42;;;;;;;;;;;9.90;99.90;;;;;;6703110;88;20657;-77
2024/03/22 03:31:42;;;;;;;;;;;10.00;99.90;;;;;;6703212;88;20190;-78
2024/03/22 03:41:43;;;;;;;;;;;10.00;99.90;;;;;;6703850;88;20058;-79
2024/03/22 03:51:43;;;;;;;;;;;10.00;99.90;;;;;;6703676;88;20148;-78
2024/03/22 04:01:44;;;;;;;;;;;10.10;99.90;;;;;;6702059;88;20129;-79
2024/03/22 04:11:44;;;;;;;;;;;10.10;99.90;;;;;;6703750;88;20521;-78
2024/03/22 04:21:44;;;;;;;;;;;10.10;99.90;;;;;;6703514;88;20060;-78
2024/03/22 04:31:45;;;;;;;;;;;10.20;99.90;;;;;;6703925;88;20068;-78
2024/03/22 04:41:45;;;;;;;;;;;10.40;99.90;;;;;;6703685;88;20064;-77
2024/03/22 04:51:46;;;;;;;;;;;10.90;99.90;;;;;;6703391;88;20145;-78
2024/03/22 05:01:47;;;;;;;;;;;10.80;99.90;;;;;;6701257;88;20062;-78
2024/03/22 05:11:50;;;;;;;;;;;10.50;99.90;;;;;;6703195;88;20070;-78
2024/03/22 05:21:50;;;;;;;;;;;10.30;99.90;;;;;;6703223;88;20106;-80
2024/03/22 05:31:51;;;;;;;;;;;10.40;99.90;;;;;;6704926;88;20809;-78
2024/03/22 05:41:52;;;;;;;;;;;10.50;99.90;;;;;;6705164;88;20130;-78
2024/03/22 05:51:52;;;;;;;;;;;10.50;99.90;;;;;;6704766;88;20062;-78
2024/03/22 06:01:53;;;;;;;;;;;10.60;99.90;;;;;;6713017;88;20081;-79
2024/03/22 06:11:53;;;;;;;;;;;10.70;99.90;;;;;;6709262;88;20062;-79
2024/03/22 06:21:54;;;;;;;;;;;10.70;99.90;;;;;;6707568;88;20067;-79
2024/03/22 06:31:54;;;;;;;;;;;11.10;99.90;;;;;;6705326;88;20059;-79
2024/03/22 06:41:54;;;;;;;;;;;11.60;99.90;;;;;;6709079;88;20070;-78
2024/03/22 06:51:55;;;;;;;;;;;11.90;99.90;;;;;;6708528;77;20054;-76
2024/03/22 07:01:55;;;;;;;;;;;11.80;99.90;;;;;;6651781;88;20214;-76
2024/03/22 07:11:56;;;;;;;;;;;11.60;99.90;;;;;;6647059;88;20098;-77
2024/03/22 07:21:59;;;;;;;;;;;11.60;99.90;;;;;;6650073;88;20126;-77
2024/03/22 07:31:59;;;;;;;;;;;11.80;99.90;;;;;;6652701;88;20080;-77
2024/03/22 07:41:59;;;;;;;;;;;12.50;99.90;;;;;;6650294;88;20156;-78
2024/03/22 07:52:00;;;;;;;;;;;13.40;99.90;;;;;;6651069;89;20088;-78
2024/03/22 08:02:01;;;;;;;;;;;14.60;99.90;;;;;;6685668;88;20682;-78
2024/03/22 08:12:02;;;;;;;;;;;15.30;99.90;;;;;;6669549;88;20231;-79
2024/03/22 08:22:03;;;;;;;;;;;15.80;99.90;;;;;;6669556;88;20534;-78
2024/03/22 08:32:04;;;;;;;;;;;15.90;99.90;;;;;;6728789;88;20067;-79
2024/03/22 08:42:05;;;;;;;;;;;16.40;99.90;;;;;;6699572;88;20139;-79
2024/03/22 08:52:06;;;;;;;;;;;16.70;99.90;;;;;;6696521;88;20073;-80
2024/03/22 09:02:06;;;;;;;;;;;16.70;99.90;;;;;;6666563;88;20546;-79
2024/03/22 09:12:07;;;;;;;;;;;16.70;99.90;;;;;;6671470;89;20103;-79
2024/03/22 09:22:08;;;;;;;;;;;16.60;99.90;;;;;;6671269;88;20181;-78
2024/03/22 09:32:08;;;;;;;;;;;16.10;99.90;;;;;;6673852;88;20488;-78
2024/03/22 09:42:10;;;;;;;;;;;16.10;99.90;;;;;;6661477;88;20107;-78
2024/03/22 09:52:11;;;;;;;;;;;16.40;99.90;;;;;;6674965;89;20074;-78
2024/03/22 10:02:12;;;;;;;;;;;16.90;99.90;;;;;;6674924;88;20118;-76
2024/03/22 10:12:13;;;;;;;;;;;17.10;99.90;;;;;;6649735;88;20062;-76
2024/03/22 10:22:16;;;;;;;;;;;17.00;99.90;;;;;;6659690;88;20694;-78
2024/03/22 10:32:16;;;;;;;;;;;17.70;99.90;;;;;;6685729;88;20094;-78
2024/03/22 10:42:18;;;;;;;;;;;18.10;99.90;;;;;;6655146;88;20135;-77
2024/03/22 10:52:19;;;;;;;;;;;17.70;99.90;;;;;;6664309;88;20130;-77
2024/03/22 11:02:23;;;;;;;;;;;17.30;99.90;;;;;;6675430;88;20174;-77
2024/03/22 11:12:25;;;;;;;;;;;17.20;99.90;;;;;;6655409;88;20066;-78
2024/03/22 11:22:25;;;;;;;;;;;17.70;99.90;;;;;;6662326;88;20066;-76
2024/03/22 11:32:26;;;;;;;;;;;17.70;99.90;;;;;;6661531;88;20116;-76
2024/03/22 11:42:26;;;;;;;;;;;17.70;99.90;;;;;;6673994;88;20573;-77
2024/03/22 11:52:27;;;;;;;;;;;18.60;99.90;;;;;;6649455;88;20093;-76
2024/03/22 12:02:27;;;;;;;;;;;18.10;99.90;;;;;;6651988;88;20101;-76
2024/03/22 12:12:28;;;;;;;;;;;17.50;99.90;;;;;;6657722;88;20186;-76
2024/03/22 12:22:28;;;;;;;;;;;17.30;99.90;;;;;;6664084;88;20464;-77
2024/03/22 12:32:29;;;;;;;;;;;17.00;99.90;;;;;;6656276;88;20523;-76
2024/03/22 12:42:29;;;;;;;;;;;16.90;99.90;;;;;;6652720;88;20079;-76
2024/03/22 12:52:30;;;;;;;;;;;17.00;99.90;;;;;;6655058;77;20093;-78
2024/03/22 13:02:32;;;;;;;;;;;16.90;99.90;;;;;;6639433;88;20516;-79
2024/03/22 13:12:34;;;;;;;;;;;17.00;99.90;;;;;;6652803;88;20052;-78
2024/03/22 13:22:34;;;;;;;;;;;16.80;99.90;;;;;;6618645;88;20212;-78
2024/03/22 13:32:38;;;;;;;;;;;17.10;99.90;;;;;;6626145;88;20067;-79
2024/03/22 13:42:39;;;;;;;;;;;19.00;99.90;;;;;;6620502;88;20596;-79
2024/03/22 13:52:39;;;;;;;;;;;19.50;99.90;;;;;;6637025;88;20118;-79
2024/03/22 14:02:39;;;;;;;;;;;19.60;99.90;;;;;;6636039;88;20080;-78
2024/03/22 14:12:40;;;;;;;;;;;20.50;99.00;;;;;;6625888;88;20134;-78
2024/03/22 14:22:41;;;;;;;;;;;19.90;98.20;;;;;;6620460;89;20755;-79
2024/03/22 14:32:41;;;;;;;;;;;19.50;98.40;;;;;;6632478;88;20067;-79
2024/03/22 14:42:43;;;;;;;;;;;20.00;97.90;;;;;;6648386;88;20067;-79
2024/03/22 14:52:43;;;;;;;;;;;20.00;97.90;;;;;;6626181;88;20090;-79
2024/03/22 15:02:44;;;;;;;;;;;19.90;98.10;;;;;;6627907;88;20067;-79
2024/03/22 15:12:44;;;;;;;;;;;19.80;98.70;;;;;;6631889;88;20556;-80
2024/03/22 15:22:45;;;;;;;;;;;19.60;99.40;;;;;;6625916;88;20092;-79
2024/03/22 15:32:45;;;;;;;;;;;19.60;99.80;;;;;;6626390;88;20197;-80
2024/03/22 15:42:46;;;;;;;;;;;19.20;99.70;;;;;;6647121;88;20058;-80
2024/03/22 15:52:46;;;;;;;;;;;19.20;98.40;;;;;;6618260;88;20578;-80
2024/03/22 16:02:48;;;;;;;;;;;19.30;98.40;;;;;;6630641;88;20121;-80
2024/03/22 16:12:50;;;;;;;;;;;19.50;98.90;;;;;;6628444;88;20526;-80
2024/03/22 16:22:50;;;;;;;;;;;19.10;99.50;;;;;;6619974;88;20193;-79
2024/03/22 16:32:51;;;;;;;;;;;18.80;99.90;;;;;;6626690;88;20599;-80
2024/03/22 16:42:52;;;;;;;;;;;18.50;99.90;;;;;;6629715;88;20064;-80
2024/03/22 16:52:52;;;;;;;;;;;18.00;99.90;;;;;;6612241;88;20279;-80
2024/03/22 17:02:53;;;;;;;;;;;17.20;99.90;;;;;;6621102;88;20055;-81
2024/03/22 17:12:53;;;;;;;;;;;16.40;99.90;;;;;;6620362;88;20094;-80
2024/03/22 17:22:54;;;;;;;;;;;15.70;99.90;;;;;;6619338;88;20121;-80
2024/03/22 17:32:55;;;;;;;;;;;15.00;99.90;;;;;;6617210;88;20078;-78
2024/03/22 17:42:55;;;;;;;;;;;14.60;99.90;;;;;;6630995;88;20545;-78
2024/03/22 17:52:55;;;;;;;;;;;14.00;99.90;;;;;;6635082;88;20080;-78
2024/03/22 18:02:56;;;;;;;;;;;13.60;99.90;;;;;;6621169;88;20055;-79
2024/03/22 18:12:56;;;;;;;;;;;13.20;99.90;;;;;;6619041;88;20106;-76
2024/03/22 18:22:57;;;;;;;;;;;13.20;99.90;;;;;;6616039;88;20063;-78
2024/03/22 18:32:58;;;;;;;;;;;13.20;99.90;;;;;;6619018;88;20211;-76
2024/03/22 18:42:58;;;;;;;;;;;13.10;99.90;;;;;;6627764;88;20077;-77
2024/03/22 18:53:00;;;;;;;;;;;13.00;99.90;;;;;;6627125;88;20084;-77
2024/03/22 19:03:00;;;;;;;;;;;12.90;99.90;;;;;;6644117;77;20071;-77
2024/03/22 19:13:01;;;;;;;;;;;12.70;99.90;;;;;;6717754;88;20059;-77
2024/03/22 19:23:03;;;;;;;;;;;12.70;99.90;;;;;;6716137;88;20548;-77
2024/03/22 19:33:05;;;;;;;;;;;12.60;99.90;;;;;;6714924;88;20062;-78
2024/03/22 19:43:06;;;;;;;;;;;12.60;99.90;;;;;;6722900;88;20070;-77
2024/03/22 19:53:07;;;;;;;;;;;12.40;99.90;;;;;;6716706;88;20073;-77
2024/03/22 20:03:07;;;;;;;;;;;12.40;99.90;;;;;;6716695;88;20067;-78
2024/03/22 20:13:08;;;;;;;;;;;12.30;99.90;;;;;;6727300;88;20388;-77
2024/03/22 20:23:08;;;;;;;;;;;12.20;99.90;;;;;;6724491;88;20080;-77
2024/03/22 20:33:09;;;;;;;;;;;12.20;99.90;;;;;;6719221;88;20501;-78
2024/03/22 20:43:10;;;;;;;;;;;12.10;99.90;;;;;;6717139;88;20055;-77
2024/03/22 20:53:14;;;;;;;;;;;12.00;99.90;;;;;;6730869;88;20077;-76
2024/03/22 21:03:15;;;;;;;;;;;12.00;99.90;;;;;;6709503;88;20063;-75
2024/03/22 21:13:17;;;;;;;;;;;12.00;99.90;;;;;;6711493;88;20066;-77
2024/03/22 21:23:18;;;;;;;;;;;12.00;99.90;;;;;;6719999;88;20125;-78
2024/03/22 21:33:19;;;;;;;;;;;11.90;99.90;;;;;;6717750;88;20107;-76
2024/03/22 21:43:19;;;;;;;;;;;12.00;99.90;;;;;;6719309;88;20627;-75
2024/03/22 21:53:20;;;;;;;;;;;11.90;99.90;;;;;;6714605;88;20211;-77
2024/03/22 22:03:21;;;;;;;;;;;11.80;99.90;;;;;;6717181;88;20118;-77
2024/03/22 22:13:23;;;;;;;;;;;11.80;99.90;;;;;;6710131;88;20063;-76
2024/03/22 22:23:24;;;;;;;;;;;11.70;99.90;;;;;;6717196;88;20093;-77
2024/03/22 22:33:25;;;;;;;;;;;11.60;99.90;;;;;;6715923;88;20062;-77
2024/03/22 22:43:26;;;;;;;;;;;11.70;99.90;;;;;;6714779;88;20051;-77
2024/03/22 22:53:27;;;;;;;;;;;10.90;99.90;;;;;;6724678;88;20078;-77
2024/03/22 23:03:28;;;;;;;;;;;10.20;99.90;;;;;;6719382;88;20556;-77
2024/03/22 23:13:29;;;;;;;;;;;10.00;99.90;;;;;;6718118;88;20174;-77
2024/03/22 23:23:30;;;;;;;;;;;9.90;99.90;;;;;;6716068;88;20073;-76
2024/03/22 23:33:31;;;;;;;;;;;9.80;99.90;;;;;;6720781;88;20109;-77
2024/03/22 23:43:32;;;;;;;;;;;9.60;99.90;;;;;;6715983;88;20121;-77
2024/03/22 23:53:33;;;;;;;;;;;9.60;99.90;;;;;;6717850;88;20076;-77
